createdAt,value
2023-04-02T00:01:00.857Z,3.03
2023-04-02T00:04:05.692Z,2.60
2023-04-02T00:06:34.821Z,2.60
2023-04-02T00:09:23.075Z,3.13
2023-04-02T00:11:55.735Z,3.50
2023-04-02T00:14:31.240Z,3.33
2023-04-02T00:17:00.166Z,3.70
2023-04-02T00:19:47.174Z,2.93
2023-04-02T00:22:19.668Z,3.50
2023-04-02T00:24:46.912Z,4.13
2023-04-02T00:27:14.785Z,2.83
2023-04-02T00:29:52.781Z,3.47
2023-04-02T00:32:28.735Z,3.43
2023-04-02T00:34:55.856Z,3.17
2023-04-02T00:37:25.132Z,3.60
2023-04-02T00:40:07.100Z,4.20
2023-04-02T00:42:35.337Z,5.03
2023-04-02T00:45:02.348Z,4.80
2023-04-02T00:47:33.683Z,4.80
2023-04-02T00:50:03.445Z,4.10
2023-04-02T00:52:31.963Z,4.23
2023-04-02T00:55:24.889Z,4.10
2023-04-02T00:57:51.991Z,3.70
2023-04-02T01:00:29.283Z,3.80
2023-04-02T01:03:28.962Z,3.40
2023-04-02T01:06:10.814Z,3.70
2023-04-02T01:08:59.321Z,3.83
2023-04-02T01:11:44.653Z,4.00
2023-04-02T01:14:26.404Z,3.87
2023-04-02T01:17:18.447Z,3.60
2023-04-02T01:19:58.492Z,3.80
2023-04-02T01:22:35.164Z,4.10
2023-04-02T01:25:04.566Z,5.10
2023-04-02T01:27:58.712Z,5.80
2023-04-02T01:30:25.607Z,5.93
2023-04-02T01:32:52.773Z,5.40
2023-04-02T01:35:19.544Z,5.83
2023-04-02T01:37:49.879Z,5.13
2023-04-02T01:40:19.538Z,4.70
2023-04-02T01:43:07.897Z,4.90
2023-04-02T01:45:35.574Z,4.73
2023-04-02T01:48:09.264Z,5.37
2023-04-02T01:50:37.979Z,4.60
2023-04-02T01:53:07.473Z,5.00
2023-04-02T01:55:43.015Z,4.30
2023-04-02T01:58:11.441Z,5.00
2023-04-02T02:00:45.760Z,5.77
2023-04-02T02:03:13.007Z,4.60
2023-04-02T02:05:40.222Z,4.70
2023-04-02T02:08:17.066Z,4.70
2023-04-02T02:10:43.587Z,4.73
2023-04-02T02:13:15.937Z,4.20
2023-04-02T02:15:42.492Z,3.83
2023-04-02T02:18:11.330Z,4.00
2023-04-02T02:20:37.848Z,4.03
2023-04-02T02:23:05.542Z,4.50
2023-04-02T02:25:34.392Z,5.13
2023-04-02T02:28:21.871Z,6.03
2023-04-02T02:30:52.832Z,5.60
2023-04-02T02:33:29.280Z,6.63
2023-04-02T02:36:16.572Z,6.60
2023-04-02T02:38:54.643Z,6.10
2023-04-02T02:41:24.583Z,5.80
2023-04-02T02:44:12.976Z,5.70
2023-04-02T02:46:44.344Z,5.20
2023-04-02T02:49:16.015Z,6.37
2023-04-02T02:52:03.985Z,5.67
2023-04-02T02:54:31.658Z,6.63
2023-04-02T02:57:01.819Z,6.10
2023-04-02T02:59:29.932Z,5.80
2023-04-02T03:01:57.023Z,5.30
2023-04-02T03:04:24.288Z,6.10
2023-04-02T03:06:57.010Z,5.60
2023-04-02T03:09:33.453Z,6.20
2023-04-02T03:12:06.619Z,5.30
2023-04-02T03:14:37.099Z,5.10
2023-04-02T03:17:10.345Z,6.03
2023-04-02T03:20:06.422Z,6.00
2023-04-02T03:22:43.991Z,6.80
2023-04-02T03:25:30.936Z,6.40
2023-04-02T03:28:05.005Z,6.97
2023-04-02T03:30:44.745Z,7.47
2023-04-02T03:33:23.136Z,7.03
2023-04-02T03:36:21.203Z,6.73
2023-04-02T03:38:55.618Z,7.60
2023-04-02T03:41:28.173Z,7.47
2023-04-02T03:43:58.655Z,8.03
2023-04-02T03:46:46.290Z,7.83
2023-04-02T03:49:19.437Z,7.90
2023-04-02T03:52:01.040Z,6.93
2023-04-02T03:54:28.422Z,7.67
2023-04-02T03:56:55.073Z,7.03
2023-04-02T03:59:47.524Z,7.50
2023-04-02T04:02:26.391Z,7.73
2023-04-02T04:04:54.720Z,8.57
2023-04-02T04:07:34.731Z,8.40
2023-04-02T04:10:02.382Z,8.57
2023-04-02T04:12:32.860Z,8.33
2023-04-02T04:15:28.565Z,8.27
2023-04-02T04:18:13.835Z,9.10
2023-04-02T04:20:42.094Z,9.30
2023-04-02T04:23:22.282Z,8.40
2023-04-02T04:25:57.646Z,7.50
2023-04-02T04:28:31.209Z,6.73
2023-04-02T04:31:01.138Z,6.30
2023-04-02T04:33:43.720Z,6.53
2023-04-02T04:36:27.852Z,6.60
2023-04-02T04:38:59.514Z,6.37
2023-04-02T04:41:30.694Z,6.60
2023-04-02T04:44:01.465Z,7.63
2023-04-02T04:47:08.208Z,6.83
2023-04-02T04:49:45.677Z,7.40
2023-04-02T04:52:18.598Z,7.50
2023-04-02T04:54:45.999Z,7.27
2023-04-02T04:57:42.189Z,7.00
2023-04-02T05:00:20.695Z,7.83
2023-04-02T05:02:52.024Z,7.67
2023-04-02T05:05:24.652Z,6.83
2023-04-02T05:07:59.108Z,7.10
2023-04-02T05:10:51.816Z,6.70
2023-04-02T05:13:25.685Z,6.60
2023-04-02T05:16:05.643Z,7.73
2023-04-02T05:18:51.353Z,6.30
2023-04-02T05:21:37.900Z,7.77
2023-04-02T05:24:35.887Z,6.33
2023-04-02T05:27:09.515Z,6.47
2023-04-02T05:29:38.846Z,6.00
2023-04-02T05:32:28.564Z,7.10
2023-04-02T05:34:57.399Z,7.07
2023-04-02T05:37:27.454Z,6.50
2023-04-02T05:39:56.674Z,6.40
2023-04-02T05:42:25.650Z,6.87
2023-04-02T05:45:27.793Z,6.00
2023-04-02T05:48:01.807Z,6.40
2023-04-02T05:50:37.520Z,7.23
2023-04-02T05:53:12.590Z,6.07
2023-04-02T05:55:51.444Z,6.00
2023-04-02T05:58:37.322Z,6.00
2023-04-02T06:01:29.545Z,6.40
2023-04-02T06:04:23.693Z,6.50
2023-04-02T06:06:59.569Z,7.00
2023-04-02T06:09:43.192Z,5.90
2023-04-02T06:12:21.823Z,6.20
2023-04-02T06:14:48.528Z,5.47
2023-04-02T06:17:17.050Z,6.03
2023-04-02T06:19:43.847Z,6.20
2023-04-02T06:22:30.910Z,5.50
2023-04-02T06:25:22.820Z,5.30
2023-04-02T06:27:50.623Z,5.43
2023-04-02T06:30:19.690Z,5.10
2023-04-02T06:32:46.152Z,5.37
2023-04-02T06:35:14.084Z,6.23
2023-04-02T06:37:43.445Z,5.53
2023-04-02T06:40:28.414Z,5.20
2023-04-02T06:42:59.624Z,5.10
2023-04-02T06:45:30.298Z,5.00
2023-04-02T06:47:57.952Z,5.00
2023-04-02T06:50:46.366Z,4.47
2023-04-02T06:53:29.166Z,4.90
2023-04-02T06:56:34.857Z,5.10
2023-04-02T06:59:04.427Z,4.80
2023-04-02T07:01:32.659Z,4.80
2023-04-02T07:03:59.669Z,4.70
2023-04-02T07:06:26.195Z,3.57
2023-04-02T07:08:52.759Z,3.80
2023-04-02T07:11:21.608Z,3.93
2023-04-02T07:13:49.357Z,3.93
2023-04-02T07:16:21.137Z,3.80
2023-04-02T07:18:48.705Z,4.83
2023-04-02T07:21:15.554Z,4.13
2023-04-02T07:23:42.063Z,3.93
2023-04-02T07:26:13.970Z,3.80
2023-04-02T07:28:40.828Z,4.00
2023-04-02T07:31:19.137Z,3.60
2023-04-02T07:33:46.021Z,3.90
2023-04-02T07:36:17.986Z,3.60
2023-04-02T07:38:44.746Z,4.50
2023-04-02T07:41:11.593Z,3.47
2023-04-02T07:43:38.780Z,3.10
2023-04-02T07:46:06.407Z,4.83
2023-04-02T07:48:33.044Z,3.27
2023-04-02T07:51:00.488Z,5.23
2023-04-02T07:53:34.629Z,3.23
2023-04-02T07:56:02.937Z,3.40
2023-04-02T07:58:31.987Z,3.13
2023-04-02T08:00:59.032Z,4.30
2023-04-02T08:03:25.728Z,3.27
2023-04-02T08:05:54.702Z,4.20
2023-04-02T08:08:22.945Z,3.40
2023-04-02T08:10:50.322Z,4.90
2023-04-02T08:13:18.166Z,3.50
2023-04-02T08:15:44.766Z,3.73
2023-04-02T08:18:12.033Z,3.70
2023-04-02T08:20:38.679Z,3.00
2023-04-02T08:23:06.987Z,3.40
2023-04-02T08:26:17.031Z,3.90
2023-04-02T08:29:24.665Z,4.17
2023-04-02T08:32:31.940Z,3.33
2023-04-02T08:35:39.587Z,4.70
2023-04-02T08:38:47.062Z,3.73
2023-04-02T08:42:03.337Z,4.40
2023-04-02T08:45:52.240Z,3.40
2023-04-02T08:49:01.972Z,3.20
2023-04-02T08:52:25.610Z,3.20
2023-04-02T08:55:36.190Z,2.90
2023-04-02T08:58:47.449Z,2.97
2023-04-02T09:02:00.711Z,4.13
2023-04-02T09:05:20.676Z,3.00
2023-04-02T09:08:29.911Z,4.10
2023-04-02T09:11:41.180Z,2.90
2023-04-02T09:14:54.335Z,4.47
2023-04-02T09:18:16.471Z,3.63
2023-04-02T09:21:32.910Z,2.73
2023-04-02T09:24:40.056Z,2.67
2023-04-02T09:27:50.176Z,3.27
2023-04-02T09:31:02.097Z,2.80
2023-04-02T09:34:29.686Z,2.60
2023-04-02T09:37:37.346Z,3.40
2023-04-02T09:40:53.593Z,2.87
2023-04-02T09:44:32.027Z,2.80
2023-04-02T09:47:40.928Z,2.60
2023-04-02T09:50:49.650Z,2.53
2023-04-02T09:54:03.120Z,2.53
2023-04-02T09:57:28.001Z,3.23
2023-04-02T10:00:35.438Z,2.40
2023-04-02T10:03:43.000Z,2.90
2023-04-02T10:06:50.770Z,2.97
2023-04-02T10:09:59.331Z,2.27
2023-04-02T10:13:29.433Z,2.70
2023-04-02T10:16:42.442Z,2.57
2023-04-02T10:19:52.558Z,2.50
2023-04-02T10:22:59.863Z,2.50
2023-04-02T10:26:37.924Z,2.37
2023-04-02T10:30:11.265Z,2.50
2023-04-02T10:33:25.397Z,2.27
2023-04-02T10:36:55.358Z,2.50
2023-04-02T10:40:32.459Z,3.13
2023-04-02T10:44:03.627Z,2.60
2023-04-02T10:47:33.468Z,2.40
2023-04-02T10:50:51.763Z,2.23
2023-04-02T10:54:28.326Z,3.20
2023-04-02T10:57:40.706Z,4.10
2023-04-02T11:00:50.676Z,3.07
2023-04-02T11:04:05.980Z,3.20
2023-04-02T11:07:20.633Z,2.73
2023-04-02T11:10:30.679Z,2.40
2023-04-02T11:13:57.483Z,2.70
2023-04-02T11:17:04.654Z,2.90
2023-04-02T11:20:49.056Z,2.63
2023-04-02T11:24:06.219Z,2.77
2023-04-02T11:27:16.446Z,2.73
2023-04-02T11:30:26.190Z,2.30
2023-04-02T11:33:44.688Z,3.00
2023-04-02T11:36:53.773Z,2.80
2023-04-02T11:40:10.984Z,2.53
2023-04-02T11:43:34.695Z,2.23
2023-04-02T11:46:42.868Z,2.77
2023-04-02T11:50:01.529Z,2.20
2023-04-02T11:53:11.898Z,2.00
2023-04-02T11:57:00.828Z,2.67
2023-04-02T12:00:32.838Z,2.00
2023-04-02T12:04:01.567Z,2.47
2023-04-02T12:07:27.943Z,2.03
2023-04-02T12:10:58.844Z,2.53
2023-04-02T12:14:45.818Z,2.80
2023-04-02T12:17:53.466Z,2.33
2023-04-02T12:21:01.245Z,1.90
2023-04-02T12:24:24.056Z,2.80
2023-04-02T12:27:31.643Z,2.67
2023-04-02T12:30:38.903Z,1.93
2023-04-02T12:33:46.280Z,2.17
2023-04-02T12:37:02.648Z,2.03
2023-04-02T12:40:17.250Z,3.00
2023-04-02T12:43:29.593Z,2.30
2023-04-02T12:46:36.915Z,2.27
2023-04-02T12:49:44.811Z,2.60
2023-04-02T12:52:54.801Z,2.93
2023-04-02T12:56:02.840Z,2.70
2023-04-02T12:59:36.006Z,2.57
2023-04-02T13:02:45.255Z,2.00
2023-04-02T13:05:57.009Z,2.40
2023-04-02T13:09:06.655Z,2.37
2023-04-02T13:12:32.656Z,3.23
2023-04-02T13:15:39.805Z,2.40
2023-04-02T13:18:48.961Z,2.27
2023-04-02T13:21:57.643Z,2.60
2023-04-02T13:25:04.965Z,2.70
2023-04-02T13:28:12.169Z,1.93
2023-04-02T13:31:19.351Z,1.90
2023-04-02T13:34:27.763Z,3.23
2023-04-02T13:37:35.200Z,2.40
2023-04-02T13:40:42.461Z,2.40
2023-04-02T13:43:50.758Z,4.50
2023-04-02T13:46:59.942Z,4.13
2023-04-02T13:50:08.365Z,3.80
2023-04-02T13:53:22.533Z,7.20
2023-04-02T13:56:29.740Z,3.80
2023-04-02T13:59:36.938Z,2.77
2023-04-02T14:02:51.786Z,2.10
2023-04-02T14:06:21.717Z,2.87
2023-04-02T14:09:41.020Z,2.13
2023-04-02T14:13:10.138Z,2.23
2023-04-02T14:16:48.266Z,1.80
2023-04-02T14:20:34.960Z,2.30
2023-04-02T14:23:54.698Z,2.50
2023-04-02T14:27:03.059Z,2.17
2023-04-02T14:30:21.927Z,2.13
2023-04-02T14:33:48.412Z,2.63
2023-04-02T14:37:01.504Z,2.10
2023-04-02T14:40:19.701Z,2.30
2023-04-02T14:43:31.865Z,3.23
2023-04-02T14:46:42.447Z,2.63
2023-04-02T14:49:54.693Z,3.10
2023-04-02T14:53:07.602Z,1.60
2023-04-02T14:56:16.146Z,2.20
2023-04-02T14:59:31.184Z,2.80
2023-04-02T15:02:46.490Z,2.13
2023-04-02T15:06:03.349Z,2.50
2023-04-02T15:09:15.665Z,2.47
2023-04-02T15:12:27.007Z,2.57
2023-04-02T15:15:40.423Z,2.97
2023-04-02T15:18:58.635Z,2.17
2023-04-02T15:22:27.636Z,2.80
2023-04-02T15:26:18.158Z,2.27
2023-04-02T15:29:47.477Z,2.23
2023-04-02T15:32:57.725Z,4.30
2023-04-02T15:36:21.415Z,3.00
2023-04-02T15:39:37.541Z,2.60
2023-04-02T15:42:57.386Z,2.83
2023-04-02T15:46:40.012Z,2.97
2023-04-02T15:49:58.250Z,4.07
2023-04-02T15:53:33.042Z,3.73
2023-04-02T15:56:43.900Z,4.83
2023-04-02T16:00:28.212Z,3.77
2023-04-02T16:03:50.530Z,4.20
2023-04-02T16:07:14.297Z,2.70
2023-04-02T16:10:45.912Z,3.13
2023-04-02T16:14:04.118Z,3.27
2023-04-02T16:17:34.197Z,3.07
2023-04-02T16:20:46.639Z,2.10
2023-04-02T16:23:53.813Z,2.33
2023-04-02T16:27:17.427Z,2.30
2023-04-02T16:30:41.799Z,1.90
2023-04-02T16:34:07.349Z,2.13
2023-04-02T16:37:35.511Z,2.03
2023-04-02T16:41:08.673Z,2.40
2023-04-02T16:44:19.306Z,2.50
2023-04-02T16:48:06.495Z,2.30
2023-04-02T16:51:16.368Z,2.10
2023-04-02T16:54:48.331Z,2.40
2023-04-02T16:58:02.199Z,2.10
2023-04-02T17:01:12.336Z,2.20
2023-04-02T17:04:28.776Z,2.13
2023-04-02T17:07:44.343Z,2.60
2023-04-02T17:11:01.686Z,3.37
2023-04-02T17:14:20.313Z,2.20
2023-04-02T17:17:27.749Z,2.20
2023-04-02T17:20:35.177Z,2.40
2023-04-02T17:24:02.601Z,2.03
2023-04-02T17:27:37.759Z,1.87
2023-04-02T17:30:48.102Z,2.20
2023-04-02T17:33:55.520Z,2.20
2023-04-02T17:37:18.517Z,2.93
2023-04-02T17:40:43.660Z,3.07
2023-04-02T17:44:28.401Z,2.63
2023-04-02T17:47:43.129Z,2.20
2023-04-02T17:50:56.081Z,2.37
2023-04-02T17:54:12.530Z,3.13
2023-04-02T17:57:32.257Z,3.33
2023-04-02T18:00:45.775Z,4.70
2023-04-02T18:03:54.810Z,6.13
2023-04-02T18:07:12.813Z,7.60
2023-04-02T18:10:25.385Z,4.30
2023-04-02T18:13:07.774Z,5.50
2023-04-02T18:15:47.850Z,3.27
2023-04-02T18:18:36.321Z,4.17
2023-04-02T18:21:37.690Z,4.47
2023-04-02T18:24:42.699Z,4.57
2023-04-02T18:27:34.606Z,5.17
2023-04-02T18:30:41.175Z,4.10
2023-04-02T18:33:19.857Z,3.87
2023-04-02T18:36:19.465Z,3.80
2023-04-02T18:38:58.941Z,3.60
2023-04-02T18:41:46.222Z,4.47
2023-04-02T18:44:38.679Z,3.23
2023-04-02T18:47:27.517Z,4.23
2023-04-02T18:50:18.733Z,6.03
2023-04-02T18:52:46.120Z,5.43
2023-04-02T18:55:18.089Z,4.90
2023-04-02T18:57:46.477Z,5.10
2023-04-02T19:00:27.313Z,4.50
2023-04-02T19:03:06.044Z,6.43
2023-04-02T19:05:35.759Z,10.03
2023-04-02T19:08:24.708Z,10.20
2023-04-02T19:10:54.654Z,10.50
2023-04-02T19:13:21.536Z,6.10
2023-04-02T19:15:54.330Z,7.20
2023-04-02T19:18:35.495Z,7.00
2023-04-02T19:21:24.831Z,7.07
2023-04-02T19:24:13.101Z,9.90
2023-04-02T19:26:49.589Z,12.50
2023-04-02T19:29:19.598Z,11.67
2023-04-02T19:32:21.134Z,10.63
2023-04-02T19:35:13.611Z,8.80
2023-04-02T19:37:43.301Z,8.70
2023-04-02T19:40:51.648Z,10.10
2023-04-02T19:43:18.401Z,11.50
2023-04-02T19:45:47.837Z,18.10
2023-04-02T19:48:21.768Z,24.70
2023-04-02T19:50:48.864Z,21.97
2023-04-02T19:53:15.618Z,20.70
2023-04-02T19:55:43.121Z,15.30
2023-04-02T19:58:23.305Z,15.50
2023-04-02T20:00:50.261Z,14.60
2023-04-02T20:03:16.780Z,12.43
2023-04-02T20:05:43.545Z,14.17
2023-04-02T20:08:11.004Z,14.90
2023-04-02T20:10:37.985Z,16.27
2023-04-02T20:13:04.727Z,16.30
2023-04-02T20:15:31.259Z,16.60
2023-04-02T20:17:58.041Z,15.17
2023-04-02T20:20:24.540Z,15.60
2023-04-02T20:22:51.128Z,14.50
2023-04-02T20:25:17.884Z,16.00
2023-04-02T20:27:44.365Z,15.93
2023-04-02T20:30:11.393Z,16.70
2023-04-02T20:32:38.346Z,17.60
2023-04-02T20:35:05.982Z,17.80
2023-04-02T20:37:32.767Z,17.23
2023-04-02T20:39:59.437Z,14.03
2023-04-02T20:42:26.348Z,15.60
2023-04-02T20:44:52.855Z,14.57
2023-04-02T20:47:19.428Z,14.53
2023-04-02T20:49:45.939Z,14.03
2023-04-02T20:52:12.450Z,13.20
2023-04-02T20:54:38.918Z,13.33
2023-04-02T20:57:05.479Z,12.50
2023-04-02T20:59:32.048Z,13.47
2023-04-02T21:01:58.598Z,13.13
2023-04-02T21:04:25.714Z,12.93
2023-04-02T21:06:56.837Z,12.63
2023-04-02T21:09:23.965Z,13.50
2023-04-02T21:11:50.585Z,12.80
2023-04-02T21:14:17.784Z,13.30
2023-04-02T21:16:44.715Z,13.70
2023-04-02T21:19:11.784Z,12.77
2023-04-02T21:21:39.336Z,15.23
2023-04-02T21:24:08.479Z,14.23
2023-04-02T21:26:38.209Z,13.10
2023-04-02T21:29:06.057Z,14.63
2023-04-02T21:31:37.535Z,15.13
2023-04-02T21:34:06.018Z,14.50
2023-04-02T21:36:34.833Z,14.00
2023-04-02T21:39:24.117Z,15.20
2023-04-02T21:41:53.131Z,14.57
2023-04-02T21:44:22.142Z,14.30
2023-04-02T21:46:51.821Z,15.17
2023-04-02T21:49:21.951Z,13.70
2023-04-02T21:51:49.172Z,12.00
2023-04-02T21:54:16.736Z,11.97
2023-04-02T21:56:45.194Z,11.43
2023-04-02T21:59:13.624Z,11.80
2023-04-02T22:01:42.334Z,10.07
2023-04-02T22:04:09.848Z,10.30
2023-04-02T22:06:39.421Z,8.33
2023-04-02T22:09:12.427Z,7.70
2023-04-02T22:11:43.224Z,7.50
2023-04-02T22:14:10.049Z,7.10
2023-04-02T22:16:37.387Z,7.20
2023-04-02T22:19:08.945Z,7.67
2023-04-02T22:21:36.531Z,7.70
2023-04-02T22:24:06.109Z,8.93
2023-04-02T22:26:33.479Z,8.50
2023-04-02T22:29:00.630Z,8.07
2023-04-02T22:31:29.849Z,9.00
2023-04-02T22:33:57.611Z,7.83
2023-04-02T22:36:25.806Z,6.97
2023-04-02T22:38:52.577Z,8.43
2023-04-02T22:41:22.013Z,8.33
2023-04-02T22:43:49.259Z,10.27
2023-04-02T22:46:17.113Z,8.90
2023-04-02T22:48:44.416Z,9.60
2023-04-02T22:51:12.854Z,8.60
2023-04-02T22:53:39.789Z,8.37
2023-04-02T22:56:07.839Z,8.30
2023-04-02T22:58:34.842Z,7.90
2023-04-02T23:01:11.924Z,8.40
2023-04-02T23:03:38.586Z,7.90
2023-04-02T23:06:08.877Z,7.40
2023-04-02T23:08:36.755Z,7.20
2023-04-02T23:11:17.953Z,8.30
2023-04-02T23:13:46.847Z,8.10
2023-04-02T23:16:14.319Z,8.93
2023-04-02T23:18:42.796Z,7.30
2023-04-02T23:21:09.551Z,8.40
2023-04-02T23:23:36.757Z,8.30
2023-04-02T23:26:06.273Z,9.10
2023-04-02T23:28:33.152Z,9.67
2023-04-02T23:31:01.745Z,10.00
2023-04-02T23:33:28.257Z,9.30
2023-04-02T23:35:54.844Z,10.30
2023-04-02T23:38:21.534Z,9.80
2023-04-02T23:40:48.025Z,10.03
2023-04-02T23:43:14.551Z,10.67
2023-04-02T23:45:41.376Z,10.13
2023-04-02T23:48:07.981Z,9.90
2023-04-02T23:50:35.283Z,10.13
2023-04-02T23:53:01.979Z,10.97
2023-04-02T23:55:28.481Z,11.73
2023-04-02T23:57:54.993Z,11.30
